Flight Track Log - Related Links

Times and Time Zones

All times are in EDT time to prevent confusion due to time zone crossing. See the SKZ7121 flight status page for this flight to view local times or setup timezone preferences in your user account.

Time Position Orientation Groundspeed Altitude Reporting Facility
EDT Latitude Longitude Course Direction KTS MPH feet Rate Location/Type
Tue 07:27:36 PM 25.0342 -77.5436 276° West 137 158 2,600  Level Miami Center
Tue 07:28:38 PM 25.0381 -77.5836 276° West 136 157 3,700 927 Climbing Miami Center
Tue 07:29:39 PM 25.0492 -77.6225 288° West 138 159 4,500 829 Climbing Miami Center
Tue 07:30:41 PM 25.0531 -77.6611 276° West 133 153 5,400 876 Climbing Miami Center
Tue 07:32:44 PM 25.0694 -77.7442 279° West 133 153 7,200 843 Climbing Miami Center
Tue 07:33:46 PM 25.0733 -77.7842 276° West 133 153 8,000 435 Climbing Miami Center
Tue 07:34:48 PM 25.0769 -77.8281 275° West 137 158 8,100 32 Climbing Miami Center
Tue 07:36:51 PM 25.0958 -77.9314 281° West 161 185 8,100  Level Miami Center
Tue 07:37:52 PM 25.1047 -77.9806 281° West 161 185 8,100  Level Miami Center
Tue 07:39:56 PM 25.1300 -78.0764 278° West 161 185 8,100  Level Miami Center
Tue 07:40:57 PM 25.1433 -78.1289 286° West 161 185 8,100  Level Miami Center
Tue 07:41:59 PM 25.1553 -78.1764 286° West 161 185 8,100  Level Miami Center
Tue 07:43:00 PM 25.1664 -78.2247 284° West 161 185 8,100 -49 Level Miami Center
Tue 07:44:02 PM 25.1733 -78.2731 279° West 161 185 8,000  Descending Miami Center
Tue 07:45:04 PM 25.1739 -78.3278 271° West 161 185 8,100 49 Climbing Miami Center
Tue 07:46:05 PM 25.1750 -78.3769 271° West 161 185 8,100  Level Miami Center
Tue 07:48:09 PM 25.1850 -78.4775 276° West 162 186 8,100  Level Miami Center
Tue 07:50:12 PM 25.1975 -78.5842 277° West 166 191 8,100 32 Level Miami Center
Tue 07:51:14 PM 25.2075 -78.6333 283° West 166 191 8,200  Climbing Miami Center
Tue 07:52:15 PM 25.2150 -78.6842 279° West 166 191 8,100  Descending Miami Center
Tue 07:53:17 PM 25.2119 -78.7342 266° West 163 188 8,200 -32 Climbing Miami Center
Tue 07:55:20 PM 25.1861 -78.8286 253° West 168 193 8,000 -65 Descending Miami Center
Tue 07:56:21 PM 25.1494 -78.8508 209° Southwest 155 178 8,000 49 Level Miami Center
Tue 07:57:23 PM 25.1153 -78.8769 215° Southwest 154 177 8,100 48 Climbing Miami Center
Tue 07:58:25 PM 25.0747 -78.9031 210° Southwest 153 176 8,100  Level Miami Center
Tue 07:59:26 PM 25.0386 -78.9269 211° Southwest 153 176 8,100  Level Miami Center
Tue 08:00:28 PM 25.0056 -78.9528 215° Southwest 153 176 8,100 49 Level Miami Center
Tue 08:01:29 PM 24.9731 -78.9847 222° Southwest 154 177 8,200  Climbing Miami Center
Tue 08:02:31 PM 24.9414 -79.0158 222° Southwest 154 177 8,100  Descending Miami Center
Tue 08:03:32 PM 24.9142 -79.0500 229° Southwest 152 175 8,200 -49 Climbing Miami Center
Tue 08:04:34 PM 24.9042 -79.0908 255° West 161 185 8,000 -49 Descending Miami Center
Tue 08:05:35 PM 24.9664 -79.1214 336° Northwest 203 234 8,100 49 Climbing Miami Center
Tue 08:06:37 PM 25.0156 -79.1486 333° Northwest 198 228 8,100 49 Level Miami Center
Tue 08:07:38 PM 25.0631 -79.1764 332° Northwest 197 227 8,200  Climbing Miami Center
Tue 08:08:40 PM 25.0983 -79.2164 314° West 186 214 8,100  Descending Miami Center
Tue 08:09:41 PM 25.1311 -79.2586 311° West 181 208 8,200 -130 Climbing Miami Center
Tue 08:11:44 PM 25.1969 -79.3458 301° West 183 211 7,700 -389 Descending Miami Center
Tue 08:12:46 PM 25.2217 -79.3972 298° West 185 213 7,000 -732 Descending Miami Center
Tue 08:13:47 PM 25.2533 -79.4575 300° West 186 214 6,200 -450 Descending Miami Center
Tue 08:14:46 PM 25.2803 -79.5019 304° West 175 201 6,100 -133 Descending Miami Center
Tue 08:15:17 PM 25.2936 -79.5236 304° West 166 191 6,000 -61 Descending Miami Center
Tue 08:16:24 PM 25.3244 -79.5719 305° West 172 198 6,000 64 Level Miami Center
Tue 08:16:51 PM 25.3347 -79.5897 303° West 174 200 6,100  Climbing Miami Center
Tue 08:17:30 PM 25.3550 -79.6225 304° West 178 205 6,000  Descending Miami Center
Tue 08:17:53 PM 25.3603 -79.6344 296° West 174 200 6,100 98 Climbing Miami Center
Tue 08:18:31 PM 25.3775 -79.6678 300° West 161 185 6,100  Level Miami Center
Tue 08:18:54 PM 25.3825 -79.6769 301° West 162 186 6,100 -109 Level Miami Center
Tue 08:19:26 PM 25.3981 -79.7064 300° West 164 189 6,000  Descending Miami Center
Tue 08:19:56 PM 25.4058 -79.7211 300° West 163 188 6,100 98 Climbing Miami Center
Tue 08:20:27 PM 25.4428 -79.7303 347° North 220 253 6,100 -65 Level Miami Center
Tue 08:21:28 PM 25.5008 -79.7392 352° North 206 237 6,000  Descending Miami Center
Tue 08:21:59 PM 25.5278 -79.7453 348° North 205 236 6,100  Climbing Miami Center
Tue 08:22:35 PM 25.5628 -79.7528 349° North 204 235 6,000  Descending Miami Center
Tue 08:23:00 PM 25.5836 -79.7564 351° North 204 235 6,100 -436 Climbing Miami Center
Tue 08:23:30 PM 25.6150 -79.7589 356° North 208 239 5,600 -1,082 Descending Miami Center
Tue 08:24:01 PM 25.6425 -79.7636 351° North 210 242 5,000 -986 Descending Miami Center
Tue 08:24:43 PM 25.6875 -79.7689 354° North 215 247 4,400 -774 Descending Miami Center
Tue 08:25:03 PM 25.7025 -79.7703 355° North 218 251 4,200 -1,279 Descending Miami Center
Tue 08:25:44 PM 25.7406 -79.7936 331° Northwest 202 232 3,100 -706 Descending Miami Center
Tue 08:26:45 PM 25.7778 -79.8356 315° West 181 208 3,000 -52 Descending Miami Center
Tue 08:27:40 PM 25.8092 -79.8703 315° West 178 205 3,000  Level Miami Center
Tue 08:28:07 PM 25.8167 -79.8822 305° West 180 207 3,000 -98 Level Miami Center
Tue 08:28:41 PM 25.8250 -79.9200 284° West 165 190 2,900 98 Descending Miami Center
Tue 08:29:08 PM 25.8272 -79.9325 281° West 171 197 3,100  Climbing Miami Center
Tue 08:29:48 PM 25.8239 -79.9731 265° West 161 185 2,900 -97 Descending Miami Center
Tue 08:30:10 PM 25.8256 -79.9914 276° West 164 189 3,000  Climbing Miami Center
Tue 08:30:43 PM 25.8233 -80.0194 265° West 162 186 2,900  Descending Miami Center
Tue 08:31:11 PM 25.8236 -80.0417 271° West 164 189 3,000 -109 Climbing Miami Center
Tue 08:31:38 PM 25.8203 -80.0653 261° West 162 186 2,800 -97 Descending Miami Center
Tue 08:32:13 PM 25.8164 -80.0906 260° West 163 188 2,900 -740 Climbing Miami Center
Tue 08:32:51 PM 25.8103 -80.1247 259° West 157 181 1,900 -1,180 Descending Miami Center
Tue 08:33:14 PM 25.8100 -80.1372 269° West 158 182 1,700 -590 Descending Miami Center
Tue 08:33:52 PM 25.8078 -80.1686 266° West 144 166 1,300 -393 Descending Miami Center
Tue 08:34:15 PM 25.8083 -80.1800 273° West 143 165 1,300 -218 Level Miami Center
Tue 08:34:47 PM 25.8075 -80.2056 268° West 123 142 1,100 -290 Descending Miami Center
Tue 08:35:17 PM 25.8067 -80.2200 266° West 131 151 1,000 -492 Descending Miami Center
Tue 08:35:48 PM 25.8047 -80.2469 265° West 135 155 600 -492 Descending Miami Center
Tue 08:36:18 PM 25.8053 -80.2594 273° West 130 150 500 -200 Descending Miami Center
Tue 08:38:00 PM 25.7833 -80.2887 90° East  Level FlightAware Approximate
Tue 08:45:00 PM 25.7833 -80.2833 90° East  Level FlightAware Approximate
Tue 08:46:00 PM 25.7833 -80.3057 90° East  Level FlightAware Approximate
Tue 08:47:00 PM 25.7833 -80.2833 90° East  Level FlightAware Approximate
Tue 08:48:00 PM 25.7833 -80.3057 90° East  Level FlightAware Approximate
Tue 08:49:00 PM 25.7833 -80.2833 90° East  Level FlightAware Approximate
Tue 08:50:00 PM 25.7833 -80.3057 90° East  Level FlightAware Approximate

Login

Don't have an account? Register now (free) for customized features, flight alerts, and more!